Flight Track Log - Related Links

Times and Time Zones

All times are in EDT time to prevent confusion due to time zone crossing. See the AWE1710 flight status page for this flight to view local times or setup timezone preferences in your user account.


Time Position Orientation Groundspeed Altitude Reporting Facility
EDT Latitude Longitude Course Direction KTS MPH feet Rate Location/Type
Mon 01:29:19 PM 35.1950 -80.9356 193° South 161 185 1,500  Level Atlanta Center
Mon 01:30:27 PM 35.1364 -80.9300 176° South 190 219 3,300 1,770 Climbing Atlanta Center
Mon 01:31:21 PM 35.0778 -80.9172 170° South 248 285 5,100 1,948 Climbing Atlanta Center
Mon 01:31:44 PM 35.0525 -80.9156 177° South 261 300 5,800 2,096 Climbing Atlanta Center
Mon 01:32:00 PM 34.6749 -80.9797 180° South  Level Estimated
Mon 01:32:44 PM 34.9836 -80.9053 173° South 273 314 8,000  Level Atlanta Center
Mon 01:33:00 PM 34.5402 -80.9873 165° South  Level Estimated
Mon 01:33:44 PM 34.9128 -80.9156 187° South 260 299 10,000  Level Atlanta Center
Mon 01:34:00 PM 34.4055 -80.9949 193° South  Level Estimated
Mon 01:34:44 PM 34.8383 -80.9411 196° South 272 313 12,000  Level Atlanta Center
Mon 01:36:34 PM 34.6936 -80.9483 182° South 279 321 15,500 1,800 Climbing Jacksonville Center
Mon 01:37:34 PM 34.6136 -80.9097 158° South 302 348 17,100 1,550 Climbing Jacksonville Center
Mon 01:38:34 PM 34.5294 -80.8664 157° South 318 366 18,600 1,200 Climbing Jacksonville Center
Mon 01:39:34 PM 34.4517 -80.8278 158° South 325 374 19,500 1,050 Climbing Jacksonville Center
Mon 01:40:34 PM 34.3600 -80.8375 185° South 334 384 20,700 1,100 Climbing Jacksonville Center
Mon 01:41:34 PM 34.2839 -80.8997 214° Southwest 315 362 21,700 1,100 Climbing Jacksonville Center
Mon 01:42:34 PM 34.2011 -80.9467 205° Southwest 325 374 22,900 1,100 Climbing Jacksonville Center
Mon 01:43:34 PM 34.1078 -80.9864 199° South 347 399 23,900 950 Climbing Jacksonville Center
Mon 01:44:34 PM 34.0058 -80.9961 185° South 368 423 24,800 800 Climbing Jacksonville Center
Mon 01:45:34 PM 33.9050 -80.9483 159° South 367 422 25,500 600 Climbing Jacksonville Center
Mon 01:46:34 PM 33.7922 -80.9408 177° South 380 437 26,000 250 Climbing Jacksonville Center
Mon 01:47:34 PM 33.6797 -80.9533 185° South 398 458 26,000  Level Jacksonville Center
Mon 01:48:34 PM 33.5631 -80.9783 190° South 415 478 26,000  Level Jacksonville Center
Mon 01:49:34 PM 33.4578 -81.0428 207° Southwest 421 484 26,000  Level Jacksonville Center
Mon 01:50:34 PM 33.3392 -81.0750 193° South 428 493 26,000  Level Jacksonville Center
Mon 01:51:35 PM 33.2203 -81.0800 182° South 428 493 26,000 -50 Level Jacksonville Center
Mon 01:52:34 PM 33.1014 -81.0872 183° South 428 493 25,900 -50 Descending Jacksonville Center
Mon 01:53:34 PM 32.9783 -81.0922 182° South 434 499 25,900  Level Jacksonville Center
Mon 01:54:34 PM 32.8553 -81.0997 183° South 434 499 25,900 50 Level Jacksonville Center
Mon 01:55:34 PM 32.7364 -81.1044 182° South 439 505 26,000 50 Climbing Jacksonville Center
Mon 01:56:34 PM 32.6050 -81.1144 184° South 439 505 26,000  Level Jacksonville Center
Mon 01:57:34 PM 32.4797 -81.1194 182° South 446 513 26,000  Level Jacksonville Center
Mon 01:58:34 PM 32.3650 -81.1242 182° South 446 513 26,000  Level Jacksonville Center
Mon 01:59:34 PM 32.2419 -81.1289 182° South 446 513 26,000 -50 Level Jacksonville Center
Mon 02:00:34 PM 32.1189 -81.1364 183° South 451 519 25,900 -50 Descending Jacksonville Center
Mon 02:01:34 PM 31.9978 -81.1411 182° South 446 513 25,900 50 Level Jacksonville Center
Mon 02:02:34 PM 31.8600 -81.1461 182° South 440 506 26,000 50 Climbing Jacksonville Center
Mon 02:03:34 PM 31.7369 -81.1533 183° South 440 506 26,000  Level Jacksonville Center
Mon 02:04:34 PM 31.6264 -81.1578 182° South 440 506 26,000  Level Jacksonville Center
Mon 02:05:34 PM 31.4931 -81.1653 183° South 440 506 26,000  Level Jacksonville Center
Mon 02:06:34 PM 31.3803 -81.1697 182° South 445 512 26,000  Level Jacksonville Center
Mon 02:07:34 PM 31.2425 -81.1722 181° South 445 512 26,000  Level Jacksonville Center
Mon 02:08:34 PM 31.1192 -81.1697 179° South 439 505 26,000  Level Jacksonville Center
Mon 02:09:34 PM 30.9961 -81.1669 179° South 439 505 26,000  Level Jacksonville Center
Mon 02:10:34 PM 30.8706 -81.1597 177° South 439 505 26,000  Level Jacksonville Center
Mon 02:11:34 PM 30.7475 -81.1594 180° South 439 505 26,000  Level Jacksonville Center
Mon 02:12:34 PM 30.6200 -81.1544 178° South 444 511 26,000  Level Jacksonville Center
Mon 02:13:34 PM 30.4989 -81.1494 178° South 444 511 26,000  Level Jacksonville Center
Mon 02:14:34 PM 30.3714 -81.1469 179° South 444 511 26,000  Level Jacksonville Center
Mon 02:15:34 PM 30.2461 -81.1422 178° South 449 517 26,000  Level Jacksonville Center
Mon 02:16:34 PM 30.1375 -81.1417 180° South 455 524 26,000  Level Jacksonville Center
Mon 02:17:34 PM 30.0122 -81.1344 177° South 455 524 26,000  Level Jacksonville Center
Mon 02:18:34 PM 29.8847 -81.1319 179° South 455 524 26,000 -1,000 Level Jacksonville Center
Mon 02:19:34 PM 29.7617 -81.1294 179° South 455 524 24,000 -2,050 Descending Jacksonville Center
Mon 02:20:34 PM 29.6447 -81.1267 179° South 440 506 21,900 -2,100 Descending Jacksonville Center
Mon 02:21:34 PM 29.5319 -81.1214 178° South 424 488 19,800 -2,000 Descending Jacksonville Center
Mon 02:22:34 PM 29.4256 -81.1211 180° South 408 470 17,900 -1,800 Descending Jacksonville Center
Mon 02:23:34 PM 29.3189 -81.1158 178° South 388 447 16,200 -1,650 Descending Jacksonville Center
Mon 02:24:34 PM 29.2186 -81.1175 181° South 376 433 14,600 -1,500 Descending Jacksonville Center
Mon 02:25:34 PM 29.1186 -81.1242 183° South 366 421 13,200 -1,000 Descending Jacksonville Center
Mon 02:26:34 PM 29.0311 -81.1375 188° South 344 396 12,600 -700 Descending Jacksonville Center
Mon 02:27:34 PM 28.9478 -81.1533 189° South 322 371 11,800 -1,150 Descending Jacksonville Center
Mon 02:28:34 PM 28.8708 -81.1761 195° South 303 349 10,300 -1,450 Descending Jacksonville Center
Mon 02:29:34 PM 28.7983 -81.2033 198° South 289 333 8,900 -1,150 Descending Jacksonville Center
Mon 02:30:34 PM 28.7511 -81.2633 228° Southwest 262 302 8,000 -1,350 Descending Jacksonville Center
Mon 02:31:34 PM 28.7100 -81.3161 228° Southwest 248 285 6,200 -1,700 Descending Jacksonville Center
Mon 02:32:34 PM 28.6517 -81.3336 195° South 228 262 4,600 -1,600 Descending Jacksonville Center

Login

Don't have an account? Register now (free) for customized features, flight alerts, and more!